Time;durP1;ratioP1;P1;durP2;ratioP2;P2;SDS_P1;SDS_P2;PMS_P1;PMS_P2;Temp;Humidity;BMP_temperature;BMP_pressure;BME280_temperature;BME280_humidity;BME280_pressure;Samples;Min_cycle;Max_cycle;Signal;HPM_P1;HPM_P2
2023/08/07 00:00:09;;;;;;;1.70;1.60;;;10.30;99.90;;;;;;5061765;28;20182;-57
2023/08/07 00:02:35;;;;;;;1.90;1.63;;;10.30;99.90;;;;;;5065341;28;20723;-57
2023/08/07 00:05:01;;;;;;;2.30;1.23;;;10.30;99.90;;;;;;5066044;28;20182;-57
2023/08/07 00:07:27;;;;;;;1.97;1.67;;;10.30;99.90;;;;;;5064210;28;20438;-58
2023/08/07 00:09:52;;;;;;;1.43;1.33;;;10.30;99.90;;;;;;5060007;28;22026;-58
2023/08/07 00:12:18;;;;;;;4.80;1.47;;;10.40;99.90;;;;;;5053642;28;20194;-56
2023/08/07 00:14:43;;;;;;;2.00;1.70;;;10.40;99.90;;;;;;5057532;28;20199;-58
2023/08/07 00:17:09;;;;;;;1.60;1.50;;;10.40;99.90;;;;;;5060491;28;20201;-58
2023/08/07 00:19:35;;;;;;;1.67;1.57;;;10.40;99.90;;;;;;5065181;28;20187;-58
2023/08/07 00:22:00;;;;;;;2.23;1.93;;;10.40;99.90;;;;;;5065825;28;20261;-56
2023/08/07 00:24:26;;;;;;;3.63;1.80;;;10.40;99.90;;;;;;5066363;28;20199;-58
2023/08/07 00:26:52;;;;;;;2.20;2.00;;;10.40;99.90;;;;;;5061843;28;20689;-57
2023/08/07 00:29:17;;;;;;;2.93;1.97;;;10.40;99.90;;;;;;5063434;28;20170;-56
2023/08/07 00:31:43;;;;;;;3.70;1.90;;;10.40;99.90;;;;;;5059017;28;20259;-58
2023/08/07 00:34:09;;;;;;;2.10;1.90;;;10.40;99.90;;;;;;5061289;28;20532;-59
2023/08/07 00:36:35;;;;;;;3.97;2.20;;;10.40;99.90;;;;;;5062658;28;20205;-58
2023/08/07 00:39:03;;;;;;;1.93;1.73;;;10.40;99.90;;;;;;5059476;28;20472;-57
2023/08/07 00:41:29;;;;;;;2.10;1.80;;;10.40;99.90;;;;;;5057922;28;20312;-57
2023/08/07 00:43:54;;;;;;;2.60;1.80;;;10.50;99.90;;;;;;5062905;28;20531;-57
2023/08/07 00:46:20;;;;;;;2.10;1.90;;;10.40;99.90;;;;;;5058669;28;20214;-58
2023/08/07 00:48:46;;;;;;;2.10;1.90;;;10.40;99.90;;;;;;5063112;28;20179;-57
2023/08/07 00:51:12;;;;;;;2.53;1.83;;;10.50;99.90;;;;;;5065695;28;20643;-58
2023/08/07 00:53:39;;;;;;;2.13;1.77;;;10.50;99.90;;;;;;5065511;28;20205;-58
2023/08/07 00:56:05;;;;;;;4.90;3.10;;;10.50;99.90;;;;;;5058994;28;20186;-58
2023/08/07 00:58:32;;;;;;;7.83;2.97;;;10.50;99.90;;;;;;5064528;28;20432;-57
2023/08/07 01:00:58;;;;;;;3.07;2.33;;;10.60;99.90;;;;;;5060319;28;20948;-58
2023/08/07 01:03:24;;;;;;;4.77;2.70;;;10.50;99.90;;;;;;5059252;28;20452;-59
2023/08/07 01:05:50;;;;;;;2.43;2.10;;;10.50;99.90;;;;;;5063963;28;20244;-58
2023/08/07 01:08:16;;;;;;;4.90;2.10;;;10.50;99.90;;;;;;5061486;28;20428;-58
2023/08/07 01:10:57;;;;;;;2.20;1.93;;;10.50;99.90;;;;;;5064170;28;20224;-58
2023/08/07 01:13:24;;;;;;;2.90;2.07;;;10.40;99.90;;;;;;5061321;28;20445;-58
2023/08/07 01:15:55;;;;;;;3.17;1.83;;;10.40;99.90;;;;;;5062154;28;20818;-59
2023/08/07 01:18:22;;;;;;;3.00;2.00;;;10.40;99.90;;;;;;5062552;28;20471;-55
2023/08/07 01:20:47;;;;;;;3.30;2.47;;;10.40;99.90;;;;;;5060489;28;20420;-57
2023/08/07 01:23:13;;;;;;;3.07;2.23;;;10.40;99.90;;;;;;5063710;28;21091;-59
2023/08/07 01:25:38;;;;;;;2.00;1.67;;;10.40;99.90;;;;;;5064029;28;20204;-59
2023/08/07 01:28:18;;;;;;;4.27;2.03;;;10.30;99.90;;;;;;5053416;28;20176;-58
2023/08/07 01:30:50;;;;;;;2.37;2.17;;;10.30;99.90;;;;;;5059492;28;20179;-59
2023/08/07 01:33:32;;;;;;;2.90;2.07;;;10.30;99.90;;;;;;5061984;28;20480;-58
2023/08/07 01:36:00;;;;;;;2.50;2.30;;;10.30;99.90;;;;;;5064137;28;20432;-59
2023/08/07 01:38:27;;;;;;;6.30;2.20;;;10.30;99.90;;;;;;5062914;28;20440;-56
2023/08/07 01:40:53;;;;;;;2.90;2.37;;;10.30;99.90;;;;;;5060241;28;20456;-59
2023/08/07 01:43:19;;;;;;;3.83;2.07;;;10.30;99.90;;;;;;5062976;28;20466;-59
2023/08/07 01:45:45;;;;;;;4.90;2.40;;;10.20;99.90;;;;;;5061448;28;20461;-59
2023/08/07 01:48:11;;;;;;;2.33;1.90;;;10.20;99.90;;;;;;5063718;28;20174;-58
2023/08/07 01:50:38;;;;;;;7.40;3.23;;;10.20;99.90;;;;;;5059244;28;21001;-57
2023/08/07 01:53:04;;;;;;;2.47;2.23;;;10.20;99.90;;;;;;5059787;28;20811;-57
2023/08/07 01:55:31;;;;;;;4.90;2.57;;;10.20;99.90;;;;;;5063799;28;20432;-58
2023/08/07 01:57:56;;;;;;;3.63;2.17;;;10.20;99.90;;;;;;5064519;28;20479;-59
2023/08/07 02:00:22;;;;;;;3.60;2.47;;;10.20;99.90;;;;;;5059314;28;20977;-58
2023/08/07 02:02:48;;;;;;;2.33;2.13;;;10.20;99.90;;;;;;5064440;28;20174;-56
2023/08/07 02:05:14;;;;;;;3.27;2.20;;;10.10;99.90;;;;;;5062804;28;20182;-59
2023/08/07 02:07:40;;;;;;;3.57;2.20;;;10.10;99.90;;;;;;5051620;28;21072;-58
2023/08/07 02:10:06;;;;;;;3.33;2.20;;;10.10;99.90;;;;;;5059735;28;20460;-57
2023/08/07 02:12:34;;;;;;;3.67;2.93;;;10.10;99.90;;;;;;5056366;28;20773;-57
2023/08/07 02:15:00;;;;;;;5.60;2.13;;;10.10;99.90;;;;;;5063268;28;20343;-58
2023/08/07 02:17:32;;;;;;;3.83;2.17;;;10.10;99.90;;;;;;5060789;28;21054;-58
2023/08/07 02:19:58;;;;;;;3.10;1.90;;;10.10;99.90;;;;;;5054677;28;20174;-59
2023/08/07 02:22:24;;;;;;;2.27;1.90;;;10.10;99.90;;;;;;5062556;28;20933;-58
2023/08/07 02:24:50;;;;;;;2.60;2.37;;;10.10;99.90;;;;;;5057348;28;20202;-58
2023/08/07 02:27:16;;;;;;;4.80;2.67;;;10.10;99.90;;;;;;5062207;28;20473;-57
2023/08/07 02:29:41;;;;;;;5.70;2.00;;;10.10;99.90;;;;;;5065768;28;20538;-58
2023/08/07 02:32:07;;;;;;;2.70;2.10;;;10.00;99.90;;;;;;5060525;28;20271;-59
2023/08/07 02:34:33;;;;;;;2.40;2.10;;;10.00;99.90;;;;;;5062090;28;20267;-55
2023/08/07 02:36:59;;;;;;;2.53;2.27;;;10.00;99.90;;;;;;5056091;28;20793;-59
2023/08/07 02:39:25;;;;;;;4.93;2.27;;;10.00;99.90;;;;;;5059537;28;20194;-58
2023/08/07 02:41:50;;;;;;;3.30;2.07;;;10.00;99.90;;;;;;5061989;28;20296;-58
2023/08/07 02:44:17;;;;;;;2.60;2.10;;;10.00;99.90;;;;;;5062950;28;21016;-57
2023/08/07 02:46:43;;;;;;;3.60;2.47;;;10.10;99.90;;;;;;5063935;28;20198;-58
2023/08/07 02:49:08;;;;;;;4.67;1.90;;;10.10;99.90;;;;;;5060562;28;20472;-58
2023/08/07 02:51:34;;;;;;;4.00;2.10;;;10.10;99.90;;;;;;5057881;28;20203;-58
2023/08/07 02:54:00;;;;;;;2.03;1.83;;;10.00;99.90;;;;;;5062754;28;20293;-56
2023/08/07 02:56:25;;;;;;;2.97;2.50;;;10.00;99.90;;;;;;5058054;28;20542;-57
2023/08/07 02:58:51;;;;;;;5.43;2.53;;;10.00;99.90;;;;;;5049432;28;20205;-59
2023/08/07 03:01:16;;;;;;;4.07;2.37;;;10.00;99.90;;;;;;5058059;28;20187;-57
2023/08/07 03:03:42;;;;;;;3.70;2.10;;;10.00;99.90;;;;;;5065239;28;20206;-58
2023/08/07 03:06:07;;;;;;;2.70;2.10;;;10.00;99.90;;;;;;5056676;28;20572;-58
2023/08/07 03:08:33;;;;;;;2.30;1.87;;;9.90;99.90;;;;;;5059025;28;20187;-55
2023/08/07 03:10:58;;;;;;;4.13;2.27;;;9.90;99.90;;;;;;5064510;28;20190;-58
2023/08/07 03:13:25;;;;;;;4.40;2.07;;;9.90;99.90;;;;;;5058540;28;20199;-58
2023/08/07 03:16:05;;;;;;;2.80;2.03;;;9.90;99.90;;;;;;5058023;28;20549;-58
2023/08/07 03:18:30;;;;;;;3.23;2.00;;;9.90;99.90;;;;;;5060321;28;20495;-58
2023/08/07 03:20:57;;;;;;;3.57;2.47;;;9.80;99.90;;;;;;5062769;28;20964;-58
2023/08/07 03:23:23;;;;;;;3.87;2.13;;;9.80;99.90;;;;;;5060597;28;20287;-58
2023/08/07 03:25:50;;;;;;;5.33;2.30;;;9.80;99.90;;;;;;5057218;28;20467;-57
2023/08/07 03:28:16;;;;;;;2.80;2.43;;;9.80;99.90;;;;;;5060204;28;20432;-55
2023/08/07 03:30:42;;;;;;;3.90;2.17;;;9.80;99.90;;;;;;5041098;28;20707;-58
2023/08/07 03:33:08;;;;;;;8.63;2.67;;;9.80;99.90;;;;;;5062868;28;20475;-58
2023/08/07 03:35:33;;;;;;;3.30;2.43;;;9.70;99.90;;;;;;5063809;28;20506;-56
2023/08/07 03:37:59;;;;;;;3.50;1.93;;;9.70;99.90;;;;;;5064880;28;20178;-58
2023/08/07 03:40:24;;;;;;;4.20;2.23;;;9.70;99.90;;;;;;5059309;28;20187;-60
2023/08/07 03:42:50;;;;;;;4.93;2.00;;;9.70;99.90;;;;;;5062256;28;20623;-59
2023/08/07 03:45:16;;;;;;;2.97;2.10;;;9.60;99.90;;;;;;5058509;28;20182;-58
2023/08/07 03:47:41;;;;;;;2.50;2.00;;;9.60;99.90;;;;;;5050904;28;21350;-62
2023/08/07 03:50:07;;;;;;;3.70;2.30;;;9.60;99.90;;;;;;5060604;28;20186;-59
2023/08/07 03:52:33;;;;;;;2.93;2.23;;;9.60;99.90;;;;;;5061265;28;20194;-58
2023/08/07 03:54:58;;;;;;;3.90;2.03;;;9.60;99.90;;;;;;5060475;28;20181;-61
2023/08/07 03:57:25;;;;;;;2.20;2.00;;;9.70;99.90;;;;;;5061341;28;20274;-56
2023/08/07 03:59:50;;;;;;;4.90;2.10;;;9.80;99.90;;;;;;5057300;28;20709;-56
2023/08/07 04:02:16;;;;;;;2.90;2.50;;;9.80;99.90;;;;;;5058267;28;20475;-56
2023/08/07 04:04:42;;;;;;;3.17;2.57;;;9.80;99.90;;;;;;5066077;28;20210;-57
2023/08/07 04:07:07;;;;;;;6.00;2.57;;;9.90;99.90;;;;;;5061593;28;20312;-57
2023/08/07 04:09:33;;;;;;;2.07;1.87;;;9.90;99.90;;;;;;5059461;28;20175;-55
2023/08/07 04:11:59;;;;;;;2.80;1.70;;;9.90;99.90;;;;;;5060764;28;20183;-57
2023/08/07 04:14:24;;;;;;;8.43;2.17;;;9.90;99.90;;;;;;5060511;28;20308;-58
2023/08/07 04:16:50;;;;;;;6.63;2.20;;;10.00;99.90;;;;;;5056575;28;20217;-58
2023/08/07 04:19:16;;;;;;;3.33;2.10;;;9.90;99.90;;;;;;5059710;28;20651;-56
2023/08/07 04:21:41;;;;;;;2.20;2.00;;;9.90;99.90;;;;;;5058661;28;20457;-57
2023/08/07 04:24:11;;;;;;;3.63;2.13;;;9.90;99.90;;;;;;5063329;28;20301;-58
2023/08/07 04:26:37;;;;;;;4.70;2.40;;;9.80;99.90;;;;;;5060578;28;20225;-58
2023/08/07 04:29:03;;;;;;;2.87;2.07;;;9.80;99.90;;;;;;5063826;28;21060;-55
2023/08/07 04:31:32;;;;;;;2.80;2.30;;;9.80;99.90;;;;;;5067779;28;20451;-57
2023/08/07 04:33:58;;;;;;;4.90;2.30;;;9.80;99.90;;;;;;5063051;28;20273;-58
2023/08/07 04:36:24;;;;;;;2.40;2.17;;;9.80;99.90;;;;;;5064257;28;20535;-59
2023/08/07 04:38:50;;;;;;;2.70;2.40;;;9.80;99.90;;;;;;5067708;28;20192;-57
2023/08/07 04:41:16;;;;;;;2.80;2.30;;;9.80;99.90;;;;;;5068681;28;20190;-57
2023/08/07 04:43:42;;;;;;;5.73;2.57;;;9.80;99.90;;;;;;5061404;28;20444;-57
2023/08/07 04:46:09;;;;;;;3.80;2.60;;;9.80;99.90;;;;;;5061304;28;20210;-57
2023/08/07 04:48:37;;;;;;;2.57;2.37;;;9.80;99.90;;;;;;5065474;28;20424;-57
2023/08/07 04:51:03;;;;;;;7.20;3.20;;;9.80;99.90;;;;;;5060011;28;20512;-56
2023/08/07 04:53:29;;;;;;;2.43;2.23;;;9.80;99.90;;;;;;5060244;28;20536;-57
2023/08/07 04:55:55;;;;;;;4.47;2.17;;;9.80;99.90;;;;;;5064254;28;20807;-57
2023/08/07 04:58:20;;;;;;;3.60;2.50;;;9.80;99.90;;;;;;5063179;28;20257;-58
2023/08/07 05:00:47;;;;;;;6.73;1.90;;;9.90;99.90;;;;;;5061812;28;20229;-56
2023/08/07 05:03:12;;;;;;;4.50;2.00;;;9.90;99.90;;;;;;5057814;28;20214;-56
2023/08/07 05:05:38;;;;;;;2.60;2.20;;;9.90;99.90;;;;;;5067367;28;21000;-57
2023/08/07 05:08:04;;;;;;;5.47;2.63;;;10.00;99.90;;;;;;5062055;28;20273;-57
2023/08/07 05:10:29;;;;;;;2.43;1.97;;;10.00;99.90;;;;;;5062127;28;20179;-58
2023/08/07 05:12:55;;;;;;;2.50;2.13;;;10.10;99.90;;;;;;5062851;28;20201;-59
2023/08/07 05:15:25;;;;;;;5.37;3.17;;;10.10;99.90;;;;;;5068188;28;20210;-56
2023/08/07 05:17:52;;;;;;;5.50;2.83;;;10.20;99.90;;;;;;5067092;28;20424;-60
2023/08/07 05:20:17;;;;;;;6.43;3.70;;;10.30;99.90;;;;;;5060102;28;20440;-55
2023/08/07 05:22:43;;;;;;;9.30;2.70;;;10.40;99.90;;;;;;5052909;28;20443;-56
2023/08/07 05:25:09;;;;;;;11.10;2.80;;;10.50;99.90;;;;;;5059635;28;20178;-60
2023/08/07 05:27:35;;;;;;;4.23;2.47;;;10.50;99.90;;;;;;5061456;28;20212;-57
2023/08/07 05:30:01;;;;;;;4.47;2.53;;;10.60;99.90;;;;;;5066710;28;20186;-55
2023/08/07 05:32:28;;;;;;;8.93;4.17;;;10.60;99.90;;;;;;5059348;28;20457;-57
2023/08/07 05:34:53;;;;;;;6.20;2.93;;;10.70;99.90;;;;;;5063420;28;20960;-56
2023/08/07 05:37:19;;;;;;;3.20;2.60;;;10.80;99.90;;;;;;5060418;28;20523;-56
2023/08/07 05:39:45;;;;;;;4.50;2.20;;;10.80;99.90;;;;;;5059829;28;20312;-60
2023/08/07 05:42:12;;;;;;;3.17;1.93;;;10.80;99.90;;;;;;5063219;28;20664;-60
2023/08/07 05:44:37;;;;;;;2.80;2.20;;;10.80;99.90;;;;;;5056066;28;20641;-59
2023/08/07 05:47:03;;;;;;;3.90;2.40;;;10.80;99.90;;;;;;5059341;28;20460;-57
2023/08/07 05:49:28;;;;;;;3.40;2.50;;;10.90;99.90;;;;;;5055957;28;20185;-59
2023/08/07 05:51:54;;;;;;;5.20;3.00;;;11.00;99.90;;;;;;5060629;28;20177;-59
2023/08/07 05:54:20;;;;;;;6.40;2.63;;;11.10;99.90;;;;;;5056952;28;20256;-57
2023/08/07 05:56:45;;;;;;;2.43;2.13;;;11.20;99.90;;;;;;5065265;28;20589;-57
2023/08/07 05:59:11;;;;;;;3.77;2.80;;;11.20;99.90;;;;;;5064022;28;20256;-58
2023/08/07 06:01:36;;;;;;;4.23;2.10;;;11.30;99.90;;;;;;5065382;28;20205;-58
2023/08/07 06:04:02;;;;;;;3.00;2.00;;;11.30;99.90;;;;;;5065643;28;20841;-57
2023/08/07 06:06:28;;;;;;;4.83;2.77;;;11.20;99.90;;;;;;5058727;28;20264;-57
2023/08/07 06:08:55;;;;;;;3.27;2.20;;;11.30;99.90;;;;;;5063224;28;20848;-60
2023/08/07 06:11:20;;;;;;;2.70;2.30;;;11.30;99.90;;;;;;5061816;28;20284;-57
2023/08/07 06:13:46;;;;;;;2.30;1.83;;;11.40;99.90;;;;;;5060514;28;20460;-56
2023/08/07 06:16:12;;;;;;;2.90;2.40;;;11.60;99.90;;;;;;5062022;28;20182;-55
2023/08/07 06:18:38;;;;;;;2.00;1.83;;;11.60;99.90;;;;;;5059725;28;20190;-57
2023/08/07 06:21:06;;;;;;;6.60;2.00;;;11.80;99.90;;;;;;5060486;28;20267;-59
2023/08/07 06:23:35;;;;;;;3.53;2.20;;;11.80;99.90;;;;;;5062793;28;20206;-57
2023/08/07 06:26:04;;;;;;;3.00;2.00;;;11.80;99.90;;;;;;5058877;28;20463;-57
2023/08/07 06:28:30;;;;;;;4.00;1.93;;;11.80;99.90;;;;;;5060272;28;20516;-59
2023/08/07 06:31:06;;;;;;;3.50;1.83;;;11.90;99.90;;;;;;5059181;28;20457;-58
2023/08/07 06:33:33;;;;;;;2.23;2.03;;;11.90;99.90;;;;;;5062282;28;20452;-57
2023/08/07 06:35:59;;;;;;;2.93;2.00;;;11.90;99.90;;;;;;5053864;28;20437;-58
2023/08/07 06:38:24;;;;;;;6.13;2.20;;;12.00;99.90;;;;;;5057157;28;20441;-57
2023/08/07 06:40:50;;;;;;;3.67;2.30;;;12.00;99.90;;;;;;5055751;28;20871;-57
2023/08/07 06:43:16;;;;;;;4.37;2.30;;;11.90;99.90;;;;;;5060595;28;20246;-57
2023/08/07 06:45:42;;;;;;;2.97;2.63;;;11.90;99.90;;;;;;5060525;28;20560;-57
2023/08/07 06:48:07;;;;;;;2.80;2.00;;;11.90;99.90;;;;;;5063702;28;20186;-58
2023/08/07 06:50:33;;;;;;;2.40;2.03;;;11.90;99.90;;;;;;5063290;28;20280;-57
2023/08/07 06:52:58;;;;;;;1.93;1.73;;;11.90;99.90;;;;;;5060532;28;20198;-58
2023/08/07 06:55:25;;;;;;;12.93;2.90;;;11.90;99.90;;;;;;5057287;28;20182;-59
2023/08/07 06:57:51;;;;;;;4.50;2.10;;;12.00;99.90;;;;;;5060901;28;20173;-56
2023/08/07 07:00:17;;;;;;;3.47;2.40;;;12.00;99.90;;;;;;5056573;28;20437;-58
2023/08/07 07:02:42;;;;;;;3.37;2.50;;;12.00;99.90;;;;;;5057910;28;20919;-61
2023/08/07 07:05:08;;;;;;;2.27;1.80;;;12.00;99.90;;;;;;5059541;28;20175;-58
2023/08/07 07:07:33;;;;;;;3.27;2.20;;;12.00;99.90;;;;;;5057638;28;20225;-57
2023/08/07 07:10:00;;;;;;;3.10;1.60;;;12.00;99.90;;;;;;5060931;28;20181;-59
2023/08/07 07:12:26;;;;;;;4.53;1.70;;;12.00;99.90;;;;;;5052048;28;20205;-57
2023/08/07 07:14:52;;;;;;;1.83;1.73;;;12.10;99.90;;;;;;5054012;28;20468;-57
2023/08/07 07:17:18;;;;;;;2.23;2.03;;;12.20;99.90;;;;;;5054835;28;20427;-57
2023/08/07 07:19:44;;;;;;;3.47;2.20;;;12.30;99.90;;;;;;5055503;28;20823;-59
2023/08/07 07:22:09;;;;;;;3.33;2.53;;;12.40;99.90;;;;;;5058951;28;20183;-60
2023/08/07 07:24:35;;;;;;;2.03;1.83;;;12.50;99.90;;;;;;5060627;28;20784;-59
2023/08/07 07:27:00;;;;;;;3.73;1.87;;;12.60;99.90;;;;;;5061671;28;20212;-57
2023/08/07 07:29:26;;;;;;;2.30;1.80;;;12.60;97.70;;;;;;5059181;28;20189;-60
2023/08/07 07:31:53;;;;;;;2.70;1.97;;;12.60;99.30;;;;;;5060298;28;20235;-58
2023/08/07 07:34:19;;;;;;;2.67;1.97;;;12.70;97.80;;;;;;5060064;28;20211;-57
2023/08/07 07:36:45;;;;;;;1.60;1.50;;;12.80;98.10;;;;;;5057997;28;20452;-58
2023/08/07 07:39:11;;;;;;;3.40;1.90;;;12.90;96.90;;;;;;5058620;28;20705;-56
2023/08/07 07:41:36;;;;;;;6.77;1.97;;;13.00;96.60;;;;;;5059158;28;20440;-58
2023/08/07 07:44:02;;;;;;;1.97;1.77;;;13.00;96.70;;;;;;5061399;28;20202;-56
2023/08/07 07:46:28;;;;;;;4.03;1.93;;;13.10;97.60;;;;;;5059480;28;20206;-59
2023/08/07 07:48:54;;;;;;;3.53;2.10;;;13.20;95.00;;;;;;5057068;28;20862;-58
2023/08/07 07:51:19;;;;;;;2.13;2.03;;;13.30;95.00;;;;;;5059706;28;20177;-57
2023/08/07 07:53:45;;;;;;;1.80;1.57;;;13.50;97.40;;;;;;5058325;28;20559;-59
2023/08/07 07:56:11;;;;;;;2.87;2.20;;;13.60;95.50;;;;;;5056876;28;20261;-57
2023/08/07 07:58:36;;;;;;;3.03;1.97;;;13.70;95.60;;;;;;5060550;28;20186;-58
2023/08/07 08:01:02;;;;;;;2.13;1.80;;;13.80;90.10;;;;;;5059968;28;20174;-56
2023/08/07 08:03:28;;;;;;;3.90;2.23;;;13.80;91.10;;;;;;5061286;28;20252;-58
2023/08/07 08:05:53;;;;;;;9.90;2.00;;;13.90;87.40;;;;;;5060257;28;20199;-58
2023/08/07 08:08:19;;;;;;;2.13;1.80;;;13.90;84.50;;;;;;5055923;28;20186;-57
2023/08/07 08:10:48;;;;;;;2.60;1.90;;;13.90;84.60;;;;;;5060938;28;20632;-58
2023/08/07 08:13:17;;;;;;;2.60;2.20;;;13.80;78.40;;;;;;5059804;28;20256;-55
2023/08/07 08:15:43;;;;;;;3.17;2.07;;;13.80;79.70;;;;;;5056779;28;21016;-58
2023/08/07 08:18:09;;;;;;;3.47;2.27;;;13.80;77.60;;;;;;5040958;28;20439;-56
2023/08/07 08:20:35;;;;;;;1.80;1.70;;;13.80;80.40;;;;;;5062729;28;21405;-58
2023/08/07 08:23:01;;;;;;;1.97;1.77;;;13.90;84.60;;;;;;5063104;28;20986;-58
2023/08/07 08:25:27;;;;;;;2.20;2.00;;;13.90;81.10;;;;;;5059964;28;20470;-57
2023/08/07 08:27:53;;;;;;;5.30;1.73;;;14.00;81.90;;;;;;5058586;28;20267;-58
2023/08/07 08:30:18;;;;;;;2.77;1.90;;;14.10;80.50;;;;;;5055952;28;20597;-57
2023/08/07 08:32:44;;;;;;;2.67;1.90;;;14.10;74.80;;;;;;5055478;28;20279;-58
2023/08/07 08:35:09;;;;;;;3.03;2.10;;;14.00;73.40;;;;;;5059322;28;20261;-59
2023/08/07 08:37:35;;;;;;;2.60;1.80;;;14.00;72.30;;;;;;5062805;28;20190;-58
2023/08/07 08:40:01;;;;;;;1.60;1.50;;;14.10;72.10;;;;;;5062750;28;20196;-57
2023/08/07 08:42:27;;;;;;;2.73;2.00;;;14.20;70.60;;;;;;5059105;28;20679;-58
2023/08/07 08:44:55;;;;;;;6.90;1.80;;;14.30;72.40;;;;;;5059447;28;20474;-59
2023/08/07 08:47:22;;;;;;;3.53;1.97;;;14.40;72.60;;;;;;5061325;28;20464;-56
2023/08/07 08:49:54;;;;;;;2.60;2.20;;;14.60;68.80;;;;;;5059375;28;20429;-57
2023/08/07 08:52:20;;;;;;;2.83;1.70;;;14.60;67.80;;;;;;5059904;28;20444;-56
2023/08/07 08:54:48;;;;;;;1.60;1.50;;;14.60;67.80;;;;;;5063513;28;20455;-58
2023/08/07 08:57:13;;;;;;;2.03;1.80;;;14.50;68.00;;;;;;5057737;28;20443;-59
2023/08/07 08:59:42;;;;;;;2.77;1.97;;;14.40;66.10;;;;;;5059092;28;20437;-57
2023/08/07 09:02:08;;;;;;;2.67;1.60;;;14.40;66.70;;;;;;5053226;28;20183;-58
2023/08/07 09:04:34;;;;;;;2.60;1.53;;;14.30;64.10;;;;;;5056465;28;20486;-57
2023/08/07 09:07:01;;;;;;;1.70;1.60;;;14.30;64.30;;;;;;5061695;28;20452;-58
2023/08/07 09:09:28;;;;;;;3.07;1.60;;;14.40;65.60;;;;;;5061039;28;20174;-60
2023/08/07 09:11:57;;;;;;;2.50;2.00;;;14.50;66.60;;;;;;5060689;28;20801;-58
2023/08/07 09:14:26;;;;;;;1.60;1.43;;;14.70;66.10;;;;;;5058413;28;20448;-59
2023/08/07 09:16:53;;;;;;;3.33;2.07;;;14.70;63.90;;;;;;5063168;28;20482;-60
2023/08/07 09:19:19;;;;;;;2.03;1.93;;;14.70;62.80;;;;;;5054960;28;20454;-56
2023/08/07 09:21:45;;;;;;;1.93;1.83;;;14.70;63.60;;;;;;5059297;28;20432;-59
2023/08/07 09:24:11;;;;;;;5.20;1.90;;;14.60;64.20;;;;;;5059021;28;20226;-58
2023/08/07 09:26:38;;;;;;;2.73;1.60;;;14.60;64.90;;;;;;5064048;28;20204;-57
2023/08/07 09:29:04;;;;;;;4.30;1.60;;;14.60;65.70;;;;;;5057095;28;20442;-59
2023/08/07 09:31:30;;;;;;;2.13;1.93;;;14.70;64.70;;;;;;5065062;28;20443;-59
2023/08/07 09:34:03;;;;;;;2.60;1.70;;;14.60;64.70;;;;;;5059276;28;20202;-59
2023/08/07 09:36:31;;;;;;;1.77;1.60;;;14.60;64.50;;;;;;5058319;28;20907;-60
2023/08/07 09:39:00;;;;;;;1.90;1.70;;;14.60;64.20;;;;;;5057900;28;20445;-60
2023/08/07 09:41:27;;;;;;;3.83;2.17;;;14.60;64.40;;;;;;5061500;28;20451;-60
2023/08/07 09:43:53;;;;;;;1.87;1.67;;;14.70;64.10;;;;;;5064718;28;20440;-60
2023/08/07 09:46:18;;;;;;;2.00;1.80;;;14.70;64.60;;;;;;5064142;28;20453;-59
2023/08/07 09:48:44;;;;;;;8.73;2.00;;;14.60;63.40;;;;;;5059271;28;20178;-60
2023/08/07 09:51:10;;;;;;;1.97;1.70;;;14.60;63.10;;;;;;5061004;28;20181;-60
2023/08/07 09:53:37;;;;;;;2.03;1.43;;;14.50;63.20;;;;;;5064108;28;20451;-60
2023/08/07 09:56:03;;;;;;;1.53;1.30;;;14.40;63.90;;;;;;5063082;28;21163;-58
2023/08/07 09:58:29;;;;;;;2.87;1.70;;;14.30;63.80;;;;;;5062280;28;20437;-59
2023/08/07 10:00:59;;;;;;;5.23;1.90;;;14.30;63.40;;;;;;5062914;28;20860;-60
2023/08/07 10:03:28;;;;;;;2.83;1.70;;;14.40;65.10;;;;;;5058284;28;20492;-60
2023/08/07 10:05:54;;;;;;;4.20;1.80;;;14.40;64.10;;;;;;5059969;28;20461;-57
2023/08/07 10:08:21;;;;;;;1.70;1.43;;;14.50;64.00;;;;;;5058043;28;20432;-56
2023/08/07 10:10:47;;;;;;;1.50;1.40;;;14.50;62.80;;;;;;5055310;28;20439;-60
2023/08/07 10:13:13;;;;;;;1.90;1.70;;;14.50;63.40;;;;;;5055221;28;20445;-58
2023/08/07 10:15:41;;;;;;;5.43;1.67;;;14.50;62.80;;;;;;5051227;28;20171;-58
2023/08/07 10:18:08;;;;;;;2.07;1.60;;;14.50;60.20;;;;;;5039634;28;20875;-56
2023/08/07 10:20:34;;;;;;;1.83;1.63;;;14.50;59.70;;;;;;5049925;28;20475;-56
2023/08/07 10:23:10;;;;;;;5.23;2.33;;;14.50;59.10;;;;;;5059945;28;20448;-58
2023/08/07 10:25:39;;;;;;;2.00;1.60;;;14.50;59.80;;;;;;5056559;28;20437;-58
2023/08/07 10:28:08;;;;;;;2.47;1.57;;;14.50;60.30;;;;;;5056180;28;20940;-58
2023/08/07 10:30:34;;;;;;;4.50;1.60;;;14.60;61.40;;;;;;5056031;28;20417;-57
2023/08/07 10:33:01;;;;;;;5.03;1.50;;;14.90;62.90;;;;;;5057900;28;20464;-58
2023/08/07 10:35:31;;;;;;;1.83;1.67;;;15.20;62.30;;;;;;5058141;28;20525;-58
2023/08/07 10:38:10;;;;;;;2.23;1.77;;;15.20;59.90;;;;;;5048220;28;20547;-55
2023/08/07 10:41:01;;;;;;;1.60;1.50;;;15.00;59.40;;;;;;5055179;28;20429;-59
2023/08/07 10:43:28;;;;;;;1.47;1.37;;;15.00;59.80;;;;;;5060176;28;20476;-59
2023/08/07 10:46:09;;;;;;;1.50;1.40;;;15.00;61.20;;;;;;5062682;28;20464;-60
2023/08/07 10:48:47;;;;;;;1.67;1.43;;;15.10;61.10;;;;;;5061036;28;20793;-57
2023/08/07 10:51:18;;;;;;;2.60;1.87;;;15.10;59.70;;;;;;5058730;28;20783;-58
2023/08/07 10:53:47;;;;;;;1.67;1.50;;;15.10;59.50;;;;;;5060395;28;20444;-59
2023/08/07 10:56:30;;;;;;;1.33;1.23;;;15.10;59.60;;;;;;5060342;28;20912;-58
2023/08/07 10:58:56;;;;;;;1.50;1.40;;;15.00;59.40;;;;;;5058571;28;20981;-59
2023/08/07 11:01:30;;;;;;;2.47;1.73;;;15.00;58.10;;;;;;5058648;28;20494;-58
2023/08/07 11:04:00;;;;;;;1.27;1.17;;;15.00;58.10;;;;;;5059195;28;20228;-59
2023/08/07 11:06:31;;;;;;;3.20;1.50;;;15.00;58.10;;;;;;5059479;28;20464;-59
2023/08/07 11:08:57;;;;;;;1.43;1.33;;;14.90;57.30;;;;;;5056684;28;20960;-59
2023/08/07 11:11:23;;;;;;;2.80;1.40;;;14.90;57.80;;;;;;5060745;28;20433;-59
2023/08/07 11:13:50;;;;;;;2.10;1.53;;;15.00;57.60;;;;;;5055387;28;20477;-56
2023/08/07 11:16:16;;;;;;;1.80;1.57;;;15.00;57.60;;;;;;5053248;28;21332;-59
2023/08/07 11:18:43;;;;;;;1.67;1.57;;;15.00;56.70;;;;;;5053670;28;20432;-58
2023/08/07 11:21:12;;;;;;;3.27;1.60;;;14.90;59.20;;;;;;5058150;28;21268;-60
2023/08/07 11:23:41;;;;;;;1.60;1.50;;;14.70;60.10;;;;;;5057835;28;20444;-59
2023/08/07 11:26:09;;;;;;;3.70;1.80;;;14.60;61.20;;;;;;5059146;28;20461;-59
2023/08/07 11:28:34;;;;;;;2.97;1.50;;;14.40;61.70;;;;;;5058832;28;20870;-58
2023/08/07 11:31:00;;;;;;;3.50;1.77;;;14.60;64.10;;;;;;5057945;28;20440;-59
2023/08/07 11:33:27;;;;;;;5.70;1.87;;;14.90;65.50;;;;;;5055550;28;22498;-58
2023/08/07 11:35:54;;;;;;;4.20;1.77;;;15.30;63.00;;;;;;5055839;28;21092;-59
2023/08/07 11:38:42;;;;;;;2.73;1.40;;;15.70;62.50;;;;;;5059594;28;20440;-60
2023/08/07 11:41:08;;;;;;;1.40;1.30;;;16.20;62.50;;;;;;5054467;28;20440;-57
2023/08/07 11:43:35;;;;;;;1.83;1.50;;;16.40;58.80;;;;;;5056837;28;20508;-55
2023/08/07 11:46:08;;;;;;;2.40;1.63;;;16.40;56.70;;;;;;5056251;28;20214;-55
2023/08/07 11:48:36;;;;;;;1.97;1.77;;;16.50;56.60;;;;;;5048704;28;20529;-56
2023/08/07 11:51:03;;;;;;;2.30;1.67;;;16.60;56.60;;;;;;5060032;28;20438;-57
2023/08/07 11:53:31;;;;;;;4.33;1.60;;;16.80;57.60;;;;;;5062779;28;20544;-58
2023/08/07 11:56:17;;;;;;;1.73;1.50;;;17.20;57.90;;;;;;5058273;28;20424;-56
2023/08/07 11:58:48;;;;;;;4.83;1.50;;;17.30;55.60;;;;;;5062353;28;20447;-57
2023/08/07 12:01:18;;;;;;;3.17;1.70;;;17.10;54.80;;;;;;5061388;28;20433;-55
2023/08/07 12:04:08;;;;;;;2.60;1.60;;;16.80;54.40;;;;;;5059648;28;20457;-56
2023/08/07 12:06:35;;;;;;;2.53;2.10;;;16.40;56.30;;;;;;5056256;28;20456;-54
2023/08/07 12:09:01;;;;;;;3.50;1.70;;;16.00;59.70;;;;;;5060323;28;21612;-55
2023/08/07 12:11:29;;;;;;;5.10;2.70;;;15.40;59.40;;;;;;5063477;28;20429;-51
2023/08/07 12:13:55;;;;;;;3.03;1.70;;;15.00;61.80;;;;;;5062067;28;21007;-53
2023/08/07 12:16:21;;;;;;;1.87;1.57;;;14.60;63.50;;;;;;5062174;28;20441;-51
2023/08/07 12:18:49;;;;;;;5.33;2.10;;;14.40;68.20;;;;;;5062560;28;20255;-52
2023/08/07 12:21:17;;;;;;;3.30;2.20;;;14.40;77.30;;;;;;5064864;28;20556;-53
2023/08/07 12:23:43;;;;;;;3.00;2.10;;;14.50;90.00;;;;;;5059230;28;20699;-52
2023/08/07 12:26:09;;;;;;;1.87;1.73;;;14.90;96.90;;;;;;5064144;28;20459;-52
2023/08/07 12:28:35;;;;;;;2.83;1.93;;;15.40;93.60;;;;;;5060729;28;21354;-54
2023/08/07 12:31:01;;;;;;;2.47;1.63;;;15.90;90.90;;;;;;5060042;28;20392;-55
2023/08/07 12:33:28;;;;;;;2.87;1.93;;;16.30;91.10;;;;;;5061219;28;20543;-57
2023/08/07 12:35:54;;;;;;;2.40;1.60;;;16.80;77.20;;;;;;5063109;28;20177;-55
2023/08/07 12:38:20;;;;;;;1.90;1.73;;;17.10;73.60;;;;;;5066721;28;20810;-56
2023/08/07 12:40:45;;;;;;;2.00;1.70;;;17.50;79.30;;;;;;5060264;28;20179;-57
2023/08/07 12:43:11;;;;;;;2.40;1.47;;;17.80;73.60;;;;;;5063837;28;20206;-59
2023/08/07 12:45:37;;;;;;;2.17;1.73;;;17.80;63.00;;;;;;5063497;28;20178;-54